Station info - map view · info · telemetry · weather · raw · status · beacons · messages · bulletins · browse · moving · my account
Callsign, ship name or locator: Clear       
It is possible to search using wildcards (*?) after a prefix. Example: OH*
APRS station IZ4UFQ-9 - show graphs
Map loading...
Comment: Fabio - Bologna
Mic-E message: Off duty
Location: 44°30.01' N 11°22.49' E - locator JN54QM40XA - show map - static map
1.8 miles East bearing 76° from Bologna, Provincia di Bologna, Emilia-Romagna, Italy [?]
3.0 miles Northwest bearing 319° from San Lazzaro di Savena, Provincia di Bologna, Emilia-Romagna, Italy
51.0 miles North bearing 7° from Florence, Provincia di Firenze, Tuscany, Italy
Last position: 2017-05-26 18:40:47 EDT (3h38m ago)
2017-05-27 00:40:47 CEST local time at Bologna, Italy [?]
Altitude: 144 ft
Course: 335°
Speed: 8 MPH
Device: Yaesu: FTM-400DR (rig)
Last path: IZ4UFQ-9>TTSP01 via WIDE1-1,WIDE2-1,qAR,IZ4UFQ-10 (good)
Positions stored: 88226
Packet rate: 51 seconds between packets on average during 1128 seconds.
Other SSIDs: IZ4UFQ IZ4UFQ-1 IZ4UFQ-10 IZ4UFQ-13 IZ4UFQ-5
Stations near current position of IZ4UFQ-9 - show more
callsign distance last heard - EDT      callsign distance last heard - EDT
IW4EKQ0.4 miles 193°2017-05-26 11:43:09 IW4EKO-11.3 miles 52°2017-05-07 13:22:18
IW4EKO1.3 miles 52°2017-05-07 12:42:36 IZ4WNA-91.4 miles 166°2017-04-30 13:58:17
ik4dct-91.5 miles 281°2017-05-09 13:20:59 EW06901.5 miles 202°2017-05-26 22:06:54
IZ4TOU-101.6 miles 218°2017-05-01 04:38:25 IZ4WNA1.6 miles 163°2017-04-29 14:07:28
IZ4UFQ-51.6 miles 218°2017-05-01 06:52:12 IZ4ISL1.6 miles 217°2017-05-01 07:54:23
IZ4UFQ-131.6 miles 232°2017-05-26 22:18:09 IZ4UFQ-101.6 miles 232°2017-05-26 22:13:30
UT5UKA2.1 miles 7°2017-05-13 02:19:19 IZ4VUG2.5 miles 349°2017-05-26 09:41:39
IZ4FTB-92.6 miles 251°2017-05-21 13:19:41 IW4CPU2.8 miles 177°2017-05-21 14:23:16
IK4OLQ2.9 miles 255°2017-05-25 11:56:31 IK4OLQ-52.9 miles 255°2017-05-06 03:12:32
IK4OLQ-152.9 miles 255°2017-05-14 12:58:19 EW17863.2 miles 177°2017-05-26 22:16:10
Stations which heard IZ4UFQ-9 directly on radio –
callsign pkts first heard - EDT last heard longest (tx => rx) longest at - EDT
IR3BT 1 2017-05-12 06:47:59 2017-05-12 06:47:59 JN54OL > JN56MD 115.2 miles 356° 2017-05-12 06:47:59
IR4AN 3 2017-05-01 05:20:00 2017-05-15 07:13:07 JN54OL > JN54FK 36.0 miles 266° 2017-05-15 07:13:07
IK3XTM 5 2017-05-01 02:58:49 2017-05-01 06:36:21 JN54QG > JN55LP 96.2 miles 348° 2017-05-01 03:08:40
9A4QV-11 1 2017-05-01 03:05:10 2017-05-01 03:05:10 JN54QG > JN75BA 146.0 miles 68° 2017-05-01 03:05:10
IR3DM-11 5 2017-05-01 03:33:51 2017-05-22 03:42:32 JN54PG > JN65DE 81.0 miles 37° 2017-05-01 03:35:34
IQ3VQ 1 2017-05-20 19:30:45 2017-05-20 19:30:45 JN54MK > JN55MK 69.5 miles 2° 2017-05-20 19:30:45
IZ4TNX-11 87 2017-05-01 00:28:17 2017-05-26 06:05:16 JN54PE > JN54SM 26.4 miles 29° 2017-05-01 03:51:40
IR2BZ 5 2017-05-01 03:07:56 2017-05-20 19:27:42 JN54QG > JN45XO 114.2 miles 324° 2017-05-01 03:07:56
IZ4UFQ-10 734 2017-05-01 00:28:15 2017-05-26 18:40:47 JN54QG > JN54QL 15.3 miles 0° 2017-05-01 03:08:41
IZ3NWP-11 5 2017-05-01 03:08:38 2017-05-20 19:27:20 JN54QG > JN55RL 84.0 miles 3° 2017-05-01 03:08:38
IW4CYE 1 2017-05-01 04:28:03 2017-05-01 04:28:03 JN54NG > JN54WN 41.0 miles 59° 2017-05-01 04:28:03
IZ4SJB-3 113 2017-05-01 01:32:13 2017-05-26 18:27:24 JN54OF > JN54PL 19.2 miles 16° 2017-05-01 04:16:40
IR4AZ 11 2017-05-01 03:08:46 2017-05-20 19:49:46 JN54PE > JN54TU 49.3 miles 23° 2017-05-01 03:52:33
IR4BA 132 2017-05-01 02:46:55 2017-05-26 18:36:41 JN54RP > JN54NF 33.0 miles 209° 2017-05-10 08:47:21
IR2S 20 2017-05-01 02:40:56 2017-05-26 06:11:23 JN54PF > JN55DQ 111.8 miles 334° 2017-05-01 03:46:42
IR2CV 6 2017-05-01 03:10:36 2017-05-01 06:32:46 JN54PF > JN55JC 64.6 miles 338° 2017-05-01 03:45:06
IR2BW 1 2017-05-01 03:08:55 2017-05-01 03:08:55 JN54QG > JN55DN 104.6 miles 330° 2017-05-01 03:08:55
IQ2CY 2 2017-05-01 03:15:38 2017-05-01 05:27:42 JN54PG > JN55AD 89.6 miles 314° 2017-05-01 03:15:38
IR3CA-2 12 2017-05-01 03:04:34 2017-05-20 19:30:39 JN54OF > JN66EA 134.7 miles 24° 2017-05-01 04:07:28
IW5CBL-15 1 2017-05-01 03:55:03 2017-05-01 03:55:03 JN54PE > JN54BH 56.5 miles 279° 2017-05-01 03:55:03
IZ3VIV-15 6 2017-05-01 02:58:09 2017-05-20 19:30:05 JN54QG > JN55PJ 77.7 miles 357° 2017-05-01 02:58:52
IW3FVZ-11 2 2017-05-01 03:28:00 2017-05-20 19:27:16 JN54PG > JN55WH 76.7 miles 22° 2017-05-01 03:28:00
IZ1XBB-1 1 2017-05-20 19:27:45 2017-05-20 19:27:45 JN54MK > JN44KV 109.8 miles 287° 2017-05-20 19:27:45
IQ4SC 219 2017-05-01 05:19:27 2017-05-26 18:34:02 JN54RL > JN54IO 36.9 miles 282° 2017-05-15 13:28:26
IR4UCI-11 474 2017-05-01 00:43:58 2017-05-26 18:40:48 JN54QG > JN54MM 24.1 miles 317° 2017-05-01 03:07:36
IZ4AQM 14 2017-05-01 02:56:09 2017-05-21 12:22:29 JN54MK > JN54TD 36.6 miles 125° 2017-05-20 19:30:01
IZ4VVL 23 2017-05-01 02:51:55 2017-05-01 06:45:23 JN54OF > JN54WJ 34.6 miles 73° 2017-05-01 04:06:50
IQ3VO 94 2017-05-01 01:27:15 2017-05-26 18:26:57 JN54PE > JN55MQ 103.1 miles 354° 2017-05-01 03:51:38
IR3AO 14 2017-05-01 05:19:27 2017-05-26 06:07:53 JN54MH > JN56WK 150.9 miles 15° 2017-05-01 05:19:27
IZ4GWE 9 2017-05-01 03:06:10 2017-05-20 19:29:19 JN54MK > JN64CK 58.8 miles 91° 2017-05-20 19:29:19
IK3YBX-10 1 2017-05-01 04:07:27 2017-05-01 04:07:27 JN54OF > JN65DM 102.0 miles 31° 2017-05-01 04:07:27
IR6UDA-11 4 2017-05-04 08:29:24 2017-05-10 11:53:52 JN54QP > JN63EU 71.9 miles 140° 2017-05-10 11:52:19

Only position packets which were originated by the station are shown here. The range statistics show some extra long hops, because some digipeaters do not correctly add themselves to the digipeater path. Please check the raw packets.
About this site
This page shows real-time information collected from the Automatic Position Reporting System Internet network (APRS-IS). APRS is used by amateur (ham) radio operators to transmit real-time position information, weather data, telemetry and messages over the radio. A vehicle equipped with a GPS receiver, a VHF transmitter or HF transceiver and a small computer device called a tracker transmits it's location, speed and course in a small data packet, which is then received by a nearby iGate receiving site which forwards the packet on the Internet. Systems connected to the Internet can send information on the APRS-IS without a radio transmitter, or collect and display information transmitted anywhere in the world.
FAQ · Blog · Discussion group · Linking to aprs.fi · AIS sites · Service status · Database statistics · Advertising on aprs.fi · Technical details · API · Change log · Planned changes · Credits and thanks · Terms Of Service · iPhone/iPad APRS